Historyczne dane pomiarowe

Dodano dane terminowe – wersja testowa.

Dane z okresu 1951-2019

Wersja bazy: 1.34 [2019-03-16, lista zmian], aktualizacja planowana na 2019-04-15

Dane meteo z obszaru Polski uzyskane na podstawie danych udostępnionych przez Instytut Meteorologii i Gospodarki Wodnej – Państwowy Instytut Badawczy.

 

Wybierz Datę:    

       

TemperaturaWilgotnośćWiatrCiśnienieOpadyŚniegCzas trwania zjawisk
 Stacja t tx tn tng RH VA  wxwx mslp ppp RRR   cm mm wxwxwxwxwxwxwx
1994-08-14 5.7 9.0 3.8--- 3.3 5.3---- 0.0------------
1994-08-13 8.9 11.4 7.4--- 6.3 7.0---- 0.0------------
1994-08-12 8.6 11.6 7.7--- 8.0 7.0---- 2.4------------
1994-08-11 12.9 17.8 11.2--- 5.3 8.3---- 0.0------------
1994-08-10 14.2 18.4 7.6--- 4.3 1.0---- 0.0------------
1994-08-09 11.7 15.2 10.0--- 8.0 0.0---- 1.6------------
1994-08-08 15.4 18.0 12.4--- 7.0 2.7---- 0.0------------
1994-08-07 14.0 17.8 12.7--- 6.3 2.7---- 5.3------------
1994-08-06 16.5 19.4 12.5--- 5.7 1.0---- 0.0------------
1994-08-05 15.0 19.1 10.9--- 2.3 0.0---- 0.0------------
1994-08-04 14.2 17.5 9.9--- 5.7 1.3---- 0.0------------
1994-08-03 14.4 17.9 11.9--- 7.0 0.0---- 8.3------------
1994-08-02 15.9 20.1 12.0--- 5.0 0.0---- 17.8------------
1994-08-01 16.3 21.9 13.5--- 3.7 2.7---- 5.9------------
1994-07-31 18.2 22.5 12.7--- 1.0 1.0---- 0.0------------
1994-07-30 17.9 23.0 12.2--- 1.7 1.0---- 0.0------------
1994-07-29 16.3 19.3 10.5--- 1.7 1.3---- 0.0------------
1994-07-28 16.2 20.4 12.6--- 1.0 0.3---- 0.0------------
1994-07-27 16.0 20.7 11.7--- 2.7 1.3---- 0.0------------
1994-07-26 16.2 19.7 12.7--- 2.3 2.0---- 0.0------------
1994-07-25 14.9 17.9 10.6--- 4.3 2.0---- 0.0------------
1994-07-24 14.0 16.7 9.6--- 1.7 2.3---- 0.0------------
1994-07-23 13.4 17.8 7.9--- 1.7 1.0---- 0.0------------
1994-07-22 12.7 16.1 7.7--- 1.0 1.0---- 0.0------------
1994-07-21 11.3 15.1 5.1--- 1.0 2.3---- 0.0------------
1994-07-20 10.0 14.1 7.6--- 3.0 3.0---- 0.0------------
1994-07-19 11.2 14.4 10.2--- 6.7 0.0---- 0.0------------
1994-07-18 13.0 16.8 10.6--- 6.3 1.0---- 24.3------------
1994-07-17 12.3 17.1 9.8--- 6.7 0.0---- 34.2------------
1994-07-16 12.7 16.0 9.8--- 6.7 0.3---- 30.7------------
1994-07-15 12.7 16.0 8.6--- 3.0 0.3---- 11.2------------
1994-07-14 12.0 15.9 9.7--- 7.0 4.3---- 14.3------------
1994-07-13 13.0 17.6 9.6--- 6.3 1.3---- 0.0------------
1994-07-12 11.4 14.0 7.6--- 4.0 1.3---- 0.0------------
1994-07-11 9.2 11.1 6.7--- 8.0 6.3---- 0.0------------
1994-07-10 6.0 7.1 3.8--- 8.0 3.0---- 8.5------------
1994-07-09 6.6 10.6 5.4--- 8.0 4.0---- 29.3------------
1994-07-08 7.6 11.0 6.7--- 3.7 10.0---- 0.0------------
1994-07-07 10.2 14.1 7.9--- 6.7 0.0---- 9.2------------
1994-07-06 12.5 16.2 8.7--- 3.0 1.7---- 0.0------------
1994-07-05 13.3 17.8 11.4--- 7.0 1.0---- 0.0------------
1994-07-04 16.1 19.8 9.8--- 0.7 2.0---- 0.0------------
1994-07-03 13.8 18.2 8.9--- 0.7 1.0---- 0.0------------
1994-07-02 13.5 19.1 6.7--- 1.7 1.7---- 0.0------------
1994-07-01 14.9 16.7 12.7--- 5.3 1.0---- 0.0------------
1994-06-30 16.3 17.8 15.1--- 5.7 1.0---- 49.7------------
1994-06-29 16.9 18.6 13.4--- 2.7 1.3---- 0.0------------
1994-06-28 17.6 20.2 15.0--- 3.3 0.3---- 0.0------------
1994-06-27 18.2 21.5 14.7--- 3.3 1.3---- 0.0------------
1994-06-26 15.2 17.9 9.9--- 1.0 6.0---- 0.0------------
1994-06-25 11.7 15.0 4.9--- 0.0 3.7---- 0.0------------
1994-06-24 8.7 11.2 4.7--- 0.7 1.0---- 0.0------------
1994-06-23 8.7 14.4 7.5--- 7.0 5.7---- 1.2------------
1994-06-22 14.5 20.2 4.1--- 5.0 3.0---- 3.6------------
1994-06-21 9.0 12.9 4.2--- 1.7 1.0---- 0.0------------
1994-06-20 11.6 15.4 9.6--- 4.3 4.3---- 0.0------------
1994-06-19 12.3 17.9 4.9--- 4.3 13.0---- 0.1------------
1994-06-18 5.5 8.2 0.0--- 5.7 8.3---- 8.5------------
1994-06-17 2.3 5.7 1.4--- 8.0 6.0---- 5.3------------
1994-06-16 5.2 8.1 4.3--- 5.7 10.7---- 0.6------------
316.2 ms

 

Źródłem pochodzenia danych jest Instytut Meteorologii i Gospodarki Wodnej – Państwowy Instytut Badawczy. Dane Instytutu Meteorologii i Gospodarki Wodnej – Państwowego Instytutu Badawczego zostały przetworzone.

Dane źródłowe można odnaleźć na stronie https://dane.imgw.pl